James Island, South Carolina
Current Conditions -  °F | °C
As of 8:35 AM on Friday 28 Nov 2014 (Local Time) from KJZI Reporting Station
Clear Clear  
Wind Chill:   Ceiling: Unl
Heat Index:   Visibility: 10mi
Dew Point: -1°   Wind: 10mph
Humidity: 70%   Direction: 20°NNE
Pressure: 30.38"   Gusts: 21mph
Location:  32.7248°N, 79.9608°W
Report Text: KJZI 281335Z AUTO 02009G18KT 10SM CLR 04/M01 A3038 RMK A02 P000
Loading
Personal Weather Stations






























Interactive Weather Map New forecast layout! Learn more

10-Day Weather Forecast

Advertisements
Track Severe Weather on mobile